Etusivu
METAR-TAF:

METAR-TAF

Lentoasemat :

Halmstad, Ruotsi

Leveyspiiri: 56-41N, Pituuspiiri: 012-50E, korkeus merenpinnasta: 30 m

Tämänhetkinen sää

Tämä raportti tehtiin 29 minuuttia sitten, kello 03.20 UTC
Tuuli 3 kn eri suunnista
Lämpötila -3°C
Kosteus 86%
Ilmanpaine 1025 hPa
Näkyvyys 10 km tai enemmän

METAR: ESMT 100320Z AUTO VRB03KT 9999 FEW003/// M03/M05 Q1025

Aika: 05:49 (03:49 UTC)

Sääennuste

Tämä raportti tehtiin 16 tuntia ja 52 minuuttia sitten, kello 10.57 UTC
Ennuste voimassa 09. päivästä klo 12 UTC - 09. päivään klo 15 UTC
Tuuli 18 kn luoteesta
Näkyvyys 10 km tai enemmän
Muutamia pilviä 3000 ft:n korkeudessa

TAF: ESMT 091057Z 0912/0915 31018KT 9999 FEW030

Säähavainnot ja -ennusteet yli 4000 lentoasemalta (METAR- ja TAF-raportit).

Käytössä olevat sääasemat on merkitty karttaan keltaisilla ja punaisilla pisteillä.

Aseta hiiri pisteen päälle nähdäksesi sääaseman nimen.

Klikkaa sitten nähdäksesi säähavainnot ja -ennusteet.

Kartan vaihtaminen: klikkaa mustalla rastilla varustettuja vihreitä pisteitä, niin voit zoomata sisään; viivalla varustettua vihreää pistettä, niin voit zoomata ulos tai vihreitä nuolia, niin pääset viereisille kartoille.


METAR-TAF: